Time;durP1;ratioP1;P1;durP2;ratioP2;P2;SDS_P1;SDS_P2;PMS_P1;PMS_P2;Temp;Humidity;BMP_temperature;BMP_pressure;BME280_temperature;BME280_humidity;BME280_pressure;Samples;Min_cycle;Max_cycle;Signal;HPM_P1;HPM_P2
2024/01/08 00:02:17;;;;;;;1.20;1.10;;;;;;;13.36;51.02;97962.58;105757;1254;71596;-41
2024/01/08 00:04:44;;;;;;;1.70;1.40;;;;;;;13.36;50.91;97966.29;105873;1253;61371;-40
2024/01/08 00:07:10;;;;;;;1.30;1.20;;;;;;;13.37;50.89;97967.45;105983;1253;61340;-39
2024/01/08 00:09:37;;;;;;;1.40;1.30;;;;;;;13.36;51.01;97970.59;105876;1253;74538;-39
2024/01/08 00:12:04;;;;;;;2.30;1.40;;;;;;;13.36;50.97;97971.04;105889;1254;61232;-39
2024/01/08 00:14:31;;;;;;;1.30;1.20;;;;;;;13.36;50.94;97970.75;105690;1254;72404;-40
2024/01/08 00:16:57;;;;;;;1.40;1.30;;;;;;;13.36;50.96;97974.05;105802;1256;61896;-40
2024/01/08 00:19:24;;;;;;;1.20;1.10;;;;;;;13.36;50.85;97975.27;105932;1254;61320;-40
2024/01/08 00:21:51;;;;;;;1.90;1.30;;;;;;;13.35;50.80;97973.48;106119;1253;74630;-40
2024/01/08 00:24:17;;;;;;;1.80;1.40;;;;;;;13.35;50.98;97971.06;105861;1256;66127;-40
2024/01/08 00:26:44;;;;;;;1.60;1.30;;;;;;;13.35;50.82;97971.10;106009;1254;72605;-40
2024/01/08 00:29:11;;;;;;;1.40;1.30;;;;;;;13.35;50.92;97973.91;105793;1255;61253;-40
2024/01/08 00:31:37;;;;;;;1.70;1.50;;;;;;;13.35;50.90;97974.30;106394;1253;61257;-40
2024/01/08 00:34:04;;;;;;;1.90;1.30;;;;;;;13.35;51.09;97976.38;105853;1253;74590;-40
2024/01/08 00:36:31;;;;;;;1.50;1.40;;;;;;;13.35;50.98;97974.13;105857;1256;64879;-40
2024/01/08 00:38:58;;;;;;;1.80;1.40;;;;;;;13.35;50.81;97972.40;105482;1258;72512;-39
2024/01/08 00:41:25;;;;;;;1.30;1.20;;;;;;;13.35;50.89;97976.92;105600;1257;61257;-40
2024/01/08 00:43:53;;;;;;;1.60;1.50;;;;;;;13.35;50.86;97977.36;105930;1254;61276;-40
2024/01/08 00:46:19;;;;;;;1.40;1.30;;;;;;;13.34;50.82;97976.41;105685;1256;74561;-39
2024/01/08 00:48:46;;;;;;;1.40;1.30;;;;;;;13.34;50.80;97980.55;105538;1256;66298;-40
2024/01/08 00:51:13;;;;;;;1.50;1.40;;;;;;;13.34;50.74;97980.92;105669;1253;72478;-40
2024/01/08 00:53:39;;;;;;;1.50;1.40;;;;;;;13.34;50.85;97985.28;105512;1256;61260;-40
2024/01/08 00:56:06;;;;;;;1.80;1.30;;;;;;;13.34;50.85;97987.53;105662;1253;61211;-40
2024/01/08 00:58:33;;;;;;;1.30;1.20;;;;;;;13.34;50.75;97989.96;105957;1256;74340;-40
2024/01/08 01:01:00;;;;;;;1.40;1.30;;;;;;;13.33;50.84;97994.02;105820;1256;65306;-40
2024/01/08 01:03:27;;;;;;;1.90;1.60;;;;;;;13.33;50.93;97996.23;105602;1254;72544;-40
2024/01/08 01:05:55;;;;;;;1.40;1.10;;;;;;;13.33;50.85;97996.02;105622;1256;61230;-40
2024/01/08 01:08:22;;;;;;;1.40;1.20;;;;;;;13.33;50.80;97995.70;105775;1254;61251;-40
2024/01/08 01:10:49;;;;;;;1.20;1.10;;;;;;;13.32;50.88;97994.96;105634;1253;74346;-40
2024/01/08 01:13:15;;;;;;;1.90;1.50;;;;;;;13.32;50.77;97995.73;105866;1253;66154;-39
2024/01/08 01:15:42;;;;;;;1.40;1.30;;;;;;;13.32;50.78;97995.94;105604;1253;165732;-40
2024/01/08 01:18:09;;;;;;;1.40;1.30;;;;;;;13.31;50.83;97998.16;105878;1256;61232;-40
2024/01/08 01:20:35;;;;;;;1.40;1.30;;;;;;;13.31;50.72;97998.05;105802;1253;61275;-41
2024/01/08 01:23:02;;;;;;;1.40;1.30;;;;;;;13.30;50.87;98000.27;105791;1256;74486;-41
2024/01/08 01:25:29;;;;;;;2.30;1.40;;;;;;;13.29;50.78;98000.89;105664;1256;65943;-41
2024/01/08 01:27:56;;;;;;;1.50;1.40;;;;;;;13.29;50.73;98003.05;105921;1253;72553;-39
2024/01/08 01:30:22;;;;;;;1.20;1.10;;;;;;;13.29;50.72;98002.27;105716;1256;61329;-41
2024/01/08 01:32:50;;;;;;;1.30;1.20;;;;;;;13.29;50.57;97999.02;105800;1253;61324;-39
2024/01/08 01:35:16;;;;;;;1.30;1.20;;;;;;;13.28;50.73;97993.46;105840;1256;75020;-40
2024/01/08 01:37:44;;;;;;;1.70;1.60;;;;;;;13.28;50.68;97990.77;105850;1253;66203;-41
2024/01/08 01:40:11;;;;;;;1.60;1.40;;;;;;;13.27;50.88;97995.73;105814;1253;72549;-39
2024/01/08 01:42:37;;;;;;;1.40;1.30;;;;;;;13.27;50.76;97994.50;105549;1254;61253;-41
2024/01/08 01:45:05;;;;;;;1.40;1.10;;;;;;;13.27;50.74;97998.10;105621;1256;61311;-40
2024/01/08 01:47:32;;;;;;;1.40;1.30;;;;;;;13.26;50.75;97999.89;105779;1253;74393;-40
2024/01/08 01:49:59;;;;;;;1.60;1.50;;;;;;;13.26;50.69;98000.81;105701;1256;65889;-40
2024/01/08 01:52:26;;;;;;;1.50;1.40;;;;;;;13.27;50.75;98004.77;105748;1256;72416;-40
2024/01/08 01:54:53;;;;;;;1.50;1.40;;;;;;;13.26;50.68;98005.80;105706;1256;61257;-40
2024/01/08 01:57:19;;;;;;;1.20;1.10;;;;;;;13.25;50.55;98006.16;105571;1258;61343;-40
2024/01/08 01:59:46;;;;;;;1.90;1.70;;;;;;;13.26;50.73;98006.48;105802;1256;74355;-40
2024/01/08 02:02:14;;;;;;;1.40;1.20;;;;;;;13.25;50.73;98013.69;105528;1253;65562;-40
2024/01/08 02:04:41;;;;;;;1.20;1.10;;;;;;;13.25;50.74;98020.69;105629;1251;72627;-39
2024/01/08 02:07:08;;;;;;;1.60;1.50;;;;;;;13.25;50.69;98019.52;105717;1259;62197;-39
2024/01/08 02:09:35;;;;;;;1.70;1.50;;;;;;;13.25;50.78;98015.14;105966;1255;61390;-39
2024/01/08 02:12:02;;;;;;;1.50;1.40;;;;;;;13.25;50.77;98013.11;105727;1251;61362;-39
2024/01/08 02:14:28;;;;;;;1.40;1.30;;;;;;;13.24;50.56;98013.55;105910;1256;65768;-40
2024/01/08 02:16:55;;;;;;;1.40;1.30;;;;;;;13.24;50.76;98016.84;105983;1256;72546;-39
2024/01/08 02:19:22;;;;;;;1.40;1.30;;;;;;;13.24;50.71;98017.85;105650;1256;61249;-40
2024/01/08 02:21:49;;;;;;;1.50;1.20;;;;;;;13.24;50.70;98022.48;105961;1251;61260;-40
2024/01/08 02:24:16;;;;;;;2.00;1.50;;;;;;;13.24;50.66;98026.30;105717;1256;74419;-40
2024/01/08 02:26:42;;;;;;;1.30;1.20;;;;;;;13.24;50.72;98026.58;106298;1256;65932;-40
2024/01/08 02:29:09;;;;;;;1.80;1.30;;;;;;;13.24;50.75;98027.50;105647;1254;61246;-40
2024/01/08 02:31:36;;;;;;;1.50;1.40;;;;;;;13.24;50.70;98027.65;106406;1253;61356;-40
2024/01/08 02:34:02;;;;;;;1.30;1.20;;;;;;;13.24;50.78;98028.36;105963;1251;61215;-40
2024/01/08 02:36:29;;;;;;;1.60;1.40;;;;;;;13.23;50.73;98031.71;105897;1251;74441;-40
2024/01/08 02:38:56;;;;;;;1.50;1.40;;;;;;;13.23;50.77;98032.95;105977;1256;65947;-40
2024/01/08 02:41:22;;;;;;;1.40;1.30;;;;;;;13.23;50.76;98034.56;105901;1253;62036;-40
2024/01/08 02:43:49;;;;;;;1.60;1.30;;;;;;;13.24;50.67;98040.57;105960;1256;61254;-40
2024/01/08 02:46:16;;;;;;;2.20;1.50;;;;;;;13.24;50.65;98047.17;105709;1251;61333;-40
2024/01/08 02:48:42;;;;;;;1.60;1.40;;;;;;;13.23;50.61;98044.47;105622;1251;74483;-40
2024/01/08 02:51:09;;;;;;;1.90;1.40;;;;;;;13.23;50.71;98049.75;105567;1253;66009;-40
2024/01/08 02:53:36;;;;;;;1.60;1.40;;;;;;;13.23;50.60;98051.08;105837;1251;72403;-40
2024/01/08 02:56:03;;;;;;;1.40;1.30;;;;;;;13.23;50.76;98049.20;105937;1256;61283;-40
2024/01/08 02:58:30;;;;;;;1.30;1.20;;;;;;;13.23;50.66;98053.19;105953;1251;61317;-40
2024/01/08 03:00:59;;;;;;;2.20;1.50;;;;;;;13.23;50.59;98047.59;105948;1256;74368;-40
2024/01/08 03:03:26;;;;;;;1.60;1.50;;;;;;;13.23;50.65;98048.66;105944;1256;65060;-41
2024/01/08 03:05:54;;;;;;;1.40;1.30;;;;;;;13.23;50.59;98051.58;105876;1252;72455;-40
2024/01/08 03:08:20;;;;;;;1.50;1.40;;;;;;;13.23;50.67;98053.03;105825;1256;61263;-41
2024/01/08 03:10:47;;;;;;;1.40;1.20;;;;;;;13.23;50.56;98058.36;105579;1251;61304;-40
2024/01/08 03:13:14;;;;;;;2.10;1.40;;;;;;;13.22;50.52;98057.71;105736;1256;74371;-39
2024/01/08 03:15:40;;;;;;;1.40;1.30;;;;;;;13.22;50.62;98059.17;105561;1256;65015;-40
2024/01/08 03:18:07;;;;;;;1.60;1.40;;;;;;;13.23;50.59;98065.50;105677;1251;73074;-40
2024/01/08 03:20:34;;;;;;;1.60;1.40;;;;;;;13.22;50.57;98062.92;105622;1255;61231;-40
2024/01/08 03:23:00;;;;;;;1.30;1.20;;;;;;;13.22;50.59;98065.46;105776;1251;61319;-39
2024/01/08 03:25:27;;;;;;;1.70;1.60;;;;;;;13.22;50.74;98068.48;105615;1255;74566;-40
2024/01/08 03:27:54;;;;;;;1.60;1.40;;;;;;;13.22;50.62;98070.10;105682;1256;66143;-40
2024/01/08 03:30:20;;;;;;;1.40;1.30;;;;;;;13.22;50.57;98070.59;105592;1251;72406;-40
2024/01/08 03:32:47;;;;;;;2.10;1.60;;;;;;;13.21;50.48;98072.80;105677;1255;61366;-40
2024/01/08 03:35:17;;;;;;;1.30;1.20;;;;;;;13.21;50.43;98071.35;105663;1251;61305;-40
2024/01/08 03:37:44;;;;;;;1.60;1.50;;;;;;;13.21;50.59;98074.20;105654;1251;74406;-39
2024/01/08 03:40:11;;;;;;;1.90;1.60;;;;;;;13.21;50.49;98079.27;105640;1256;63851;-41
2024/01/08 03:42:38;;;;;;;1.30;1.20;;;;;;;13.21;50.51;98080.77;105655;1255;71564;-41
2024/01/08 03:45:05;;;;;;;1.40;1.30;;;;;;;13.20;50.58;98082.66;105574;1255;61356;-41
2024/01/08 03:47:33;;;;;;;1.30;1.20;;;;;;;13.20;50.43;98085.90;105711;1251;61349;-41
2024/01/08 03:50:00;;;;;;;1.40;1.30;;;;;;;13.20;50.50;98085.63;105809;1254;74532;-40
2024/01/08 03:52:26;;;;;;;2.40;1.40;;;;;;;13.20;50.46;98089.34;105640;1255;65629;-40
2024/01/08 03:54:53;;;;;;;1.40;1.30;;;;;;;13.19;50.45;98089.67;105589;1251;72295;-40
2024/01/08 03:57:20;;;;;;;1.40;1.30;;;;;;;13.19;50.49;98094.96;105677;1256;61304;-40
2024/01/08 03:59:46;;;;;;;1.50;1.40;;;;;;;13.19;50.55;98097.65;105682;1251;61305;-40
2024/01/08 04:02:13;;;;;;;1.20;1.10;;;;;;;13.18;50.47;98102.77;105724;1251;74505;-40
2024/01/08 04:04:42;;;;;;;1.60;1.50;;;;;;;13.19;50.52;98105.78;105715;1254;66079;-40
2024/01/08 04:07:10;;;;;;;1.70;1.60;;;;;;;13.18;50.37;98106.13;105705;1251;72368;-39
2024/01/08 04:09:39;;;;;;;1.40;1.30;;;;;;;13.18;50.44;98109.35;105730;1256;61216;-40
2024/01/08 04:12:06;;;;;;;1.40;1.30;;;;;;;13.18;50.45;98113.11;105599;1251;62989;-40
2024/01/08 04:14:32;;;;;;;1.50;1.40;;;;;;;13.18;50.52;98115.16;105908;1256;74632;-40
2024/01/08 04:17:04;;;;;;;1.50;1.40;;;;;;;13.17;50.51;98119.75;105992;1256;66089;-39
2024/01/08 04:19:31;;;;;;;1.60;1.30;;;;;;;13.17;50.51;98121.36;105950;1253;70150;-40
2024/01/08 04:21:58;;;;;;;2.10;1.60;;;;;;;13.17;50.45;98124.05;105889;1256;61245;-40
2024/01/08 04:24:24;;;;;;;1.50;1.30;;;;;;;13.17;50.44;98132.71;105719;1251;61292;-41
2024/01/08 04:26:51;;;;;;;1.50;1.40;;;;;;;13.16;50.40;98133.17;105636;1251;74274;-41
2024/01/08 04:29:17;;;;;;;1.70;1.30;;;;;;;13.16;50.44;98132.46;105638;1257;66397;-40
2024/01/08 04:31:44;;;;;;;1.30;1.20;;;;;;;13.16;50.40;98131.23;105807;1251;72700;-40
2024/01/08 04:34:11;;;;;;;2.10;1.60;;;;;;;13.16;50.46;98132.21;105952;1256;61401;-39
2024/01/08 04:36:44;;;;;;;1.60;1.50;;;;;;;13.15;50.39;98128.88;106494;1251;61188;-40
2024/01/08 04:39:11;;;;;;;1.70;1.50;;;;;;;13.15;50.56;98130.65;105965;1256;74404;-40
2024/01/08 04:41:38;;;;;;;1.30;1.20;;;;;;;13.15;50.45;98131.09;106306;1255;64070;-40
2024/01/08 04:44:07;;;;;;;1.40;1.20;;;;;;;13.15;50.42;98134.70;105733;1251;72352;-40
2024/01/08 04:46:34;;;;;;;1.70;1.40;;;;;;;13.15;50.47;98137.48;105751;1255;61308;-40
2024/01/08 04:49:04;;;;;;;1.60;1.30;;;;;;;13.15;50.43;98140.61;105659;1254;61352;-40
2024/01/08 04:51:33;;;;;;;1.20;1.10;;;;;;;13.15;50.41;98145.52;105731;1251;74484;-40
2024/01/08 04:54:00;;;;;;;1.90;1.40;;;;;;;13.15;50.43;98152.29;105891;1256;66039;-40
2024/01/08 04:56:30;;;;;;;1.40;1.30;;;;;;;13.15;50.42;98154.50;105949;1251;72554;-40
2024/01/08 04:58:56;;;;;;;1.70;1.60;;;;;;;13.15;50.42;98158.73;105989;1255;61803;-40
2024/01/08 05:01:23;;;;;;;1.90;1.70;;;;;;;13.15;50.37;98159.13;105895;1251;61320;-40
2024/01/08 05:03:50;;;;;;;1.60;1.40;;;;;;;13.14;50.37;98159.94;105946;1255;74543;-40
2024/01/08 05:06:18;;;;;;;1.80;1.50;;;;;;;13.14;50.44;98166.40;105749;1254;66067;-40
2024/01/08 05:08:44;;;;;;;1.70;1.50;;;;;;;13.14;50.39;98167.64;105924;1251;72668;-40
2024/01/08 05:11:11;;;;;;;1.50;1.40;;;;;;;13.14;50.44;98172.16;105863;1251;61251;-40
2024/01/08 05:13:38;;;;;;;1.70;1.40;;;;;;;13.14;50.48;98176.63;105712;1251;61823;-40
2024/01/08 05:16:06;;;;;;;1.20;1.10;;;;;;;13.14;50.39;98177.42;105811;1256;74433;-40
2024/01/08 05:18:32;;;;;;;1.50;1.40;;;;;;;13.13;50.33;98180.56;105995;1253;65694;-40
2024/01/08 05:20:59;;;;;;;1.40;1.30;;;;;;;13.13;50.36;98184.48;105849;1251;73565;-40
2024/01/08 05:23:26;;;;;;;1.50;1.30;;;;;;;13.14;50.37;98190.19;105833;1255;61160;-40
2024/01/08 05:25:53;;;;;;;1.40;1.30;;;;;;;13.14;50.24;98192.50;105864;1251;61259;-40
2024/01/08 05:28:19;;;;;;;1.60;1.50;;;;;;;13.13;50.38;98200.08;105740;1251;74577;-40
2024/01/08 05:30:46;;;;;;;1.50;1.40;;;;;;;13.14;50.28;98202.55;105798;1253;64950;-40
2024/01/08 05:33:13;;;;;;;1.60;1.40;;;;;;;13.14;50.37;98206.32;105891;1251;71447;-39
2024/01/08 05:35:40;;;;;;;1.70;1.50;;;;;;;13.13;50.29;98209.77;105813;1256;61260;-39
2024/01/08 05:38:07;;;;;;;1.60;1.30;;;;;;;13.13;50.26;98211.43;105931;1251;61682;-41
2024/01/08 05:40:34;;;;;;;1.40;1.30;;;;;;;13.13;50.27;98221.81;105896;1253;73436;-41
2024/01/08 05:43:00;;;;;;;1.40;1.20;;;;;;;13.13;50.32;98222.14;105811;1253;65503;-40
2024/01/08 05:45:27;;;;;;;1.30;1.20;;;;;;;13.12;50.31;98225.91;105766;1252;72602;-41
2024/01/08 05:47:54;;;;;;;1.70;1.60;;;;;;;13.12;50.25;98221.98;105914;1256;61241;-39
2024/01/08 05:50:27;;;;;;;2.10;1.40;;;;;;;13.12;50.15;98224.14;105755;1251;61227;-41
2024/01/08 05:52:54;;;;;;;1.40;1.20;;;;;;;13.13;50.21;98226.13;105963;1253;74396;-39
2024/01/08 05:55:22;;;;;;;2.10;1.50;;;;;;;13.12;50.22;98231.29;105880;1256;66143;-39
2024/01/08 05:57:48;;;;;;;1.50;1.40;;;;;;;13.12;50.17;98236.58;105944;1251;72403;-41
2024/01/08 06:00:16;;;;;;;1.30;1.20;;;;;;;13.12;50.22;98244.25;105965;1256;61227;-39
2024/01/08 06:02:42;;;;;;;1.50;1.20;;;;;;;13.12;50.25;98246.95;105711;1251;61386;-40
2024/01/08 06:05:09;;;;;;;1.30;1.20;;;;;;;13.12;50.13;98250.46;105888;1255;74527;-40
2024/01/08 06:07:37;;;;;;;1.60;1.40;;;;;;;13.12;50.13;98250.55;105889;1255;66189;-40
2024/01/08 06:10:04;;;;;;;1.80;1.60;;;;;;;13.12;50.15;98254.55;105722;1251;72343;-41
2024/01/08 06:12:31;;;;;;;2.00;1.70;;;;;;;13.11;50.16;98255.59;105855;1255;61245;-40
2024/01/08 06:14:57;;;;;;;1.60;1.50;;;;;;;13.12;50.28;98259.98;105679;1251;61326;-40
2024/01/08 06:17:24;;;;;;;1.50;1.40;;;;;;;13.12;50.15;98262.23;105672;1251;74638;-39
2024/01/08 06:19:51;;;;;;;3.10;1.50;;;;;;;13.12;50.10;98264.67;105756;1256;64915;-41
2024/01/08 06:22:17;;;;;;;1.50;1.40;;;;;;;13.11;50.11;98265.95;105886;1256;72368;-39
2024/01/08 06:24:44;;;;;;;1.50;1.30;;;;;;;13.11;50.14;98276.34;105941;1256;61349;-40
2024/01/08 06:27:11;;;;;;;1.70;1.40;;;;;;;13.11;50.14;98275.65;105920;1251;61356;-40
2024/01/08 06:29:37;;;;;;;1.70;1.40;;;;;;;13.11;50.03;98281.39;105943;1253;74675;-40
2024/01/08 06:32:04;;;;;;;1.60;1.40;;;;;;;13.11;50.05;98282.41;105960;1256;66188;-40
2024/01/08 06:34:31;;;;;;;1.60;1.40;;;;;;;13.11;50.12;98285.55;105756;1251;72580;-40
2024/01/08 06:36:58;;;;;;;1.60;1.30;;;;;;;13.11;50.19;98291.52;105658;1255;61218;-41
2024/01/08 06:39:26;;;;;;;1.50;1.40;;;;;;;13.11;50.08;98298.83;105680;1251;61165;-41
2024/01/08 06:41:53;;;;;;;2.10;1.40;;;;;;;13.11;50.08;98301.41;105806;1251;74348;-39
2024/01/08 06:44:19;;;;;;;1.50;1.40;;;;;;;13.11;50.12;98302.85;105931;1254;64838;-40
2024/01/08 06:46:46;;;;;;;1.50;1.30;;;;;;;13.11;50.00;98304.54;105787;1251;71411;-38
2024/01/08 06:49:12;;;;;;;1.40;1.20;;;;;;;13.11;50.16;98304.69;105712;1256;61237;-39
2024/01/08 06:51:40;;;;;;;1.50;1.40;;;;;;;13.11;49.96;98304.90;105666;1252;61218;-40
2024/01/08 06:54:07;;;;;;;2.40;1.70;;;;;;;13.11;49.92;98309.54;105892;1252;73552;-40
2024/01/08 06:56:34;;;;;;;1.60;1.40;;;;;;;13.11;50.09;98310.83;106429;1254;65478;-40
2024/01/08 06:59:01;;;;;;;1.90;1.50;;;;;;;13.11;50.04;98313.67;105833;1251;72595;-41
2024/01/08 07:01:29;;;;;;;1.40;1.30;;;;;;;13.11;50.05;98315.06;105796;1256;61343;-41
2024/01/08 07:03:57;;;;;;;1.80;1.30;;;;;;;13.12;50.10;98321.63;105702;1251;61263;-40
2024/01/08 07:06:24;;;;;;;1.40;1.30;;;;;;;13.11;50.05;98320.98;105608;1256;74574;-40
2024/01/08 07:08:51;;;;;;;1.60;1.50;;;;;;;13.11;50.03;98324.77;105749;1256;66019;-41
2024/01/08 07:11:22;;;;;;;1.70;1.50;;;;;;;13.12;49.87;98327.77;105814;1253;72558;-41
2024/01/08 07:13:49;;;;;;;2.00;1.80;;;;;;;13.11;49.71;98330.61;105889;1256;61339;-41
2024/01/08 07:16:16;;;;;;;1.90;1.70;;;;;;;13.09;49.65;98332.91;105879;1254;61333;-42
2024/01/08 07:18:44;;;;;;;2.00;1.80;;;;;;;13.07;49.52;98332.73;105933;1253;74493;-41
2024/01/08 07:21:14;;;;;;;2.90;2.00;;;;;;;13.05;49.57;98332.70;105716;1254;66420;-41
2024/01/08 07:23:41;;;;;;;1.80;1.60;;;;;;;13.04;49.35;98334.96;105760;1251;73626;-39
2024/01/08 07:26:07;;;;;;;2.00;1.80;;;;;;;13.03;49.23;98341.77;105888;1256;61145;-41
2024/01/08 07:28:34;;;;;;;2.90;2.00;;;;;;;13.01;49.29;98343.50;105613;1251;61355;-41
2024/01/08 07:31:03;;;;;;;3.00;2.10;;;;;;;13.00;49.28;98342.73;105936;1251;74718;-38
2024/01/08 07:33:30;;;;;;;3.00;1.90;;;;;;;12.99;49.21;98348.29;105795;1254;65694;-41
2024/01/08 07:35:56;;;;;;;5.30;2.30;;;;;;;12.98;49.18;98352.77;105666;1251;72877;-41
2024/01/08 07:38:23;;;;;;;2.30;2.00;;;;;;;12.97;49.11;98362.56;105628;1255;61218;-40
2024/01/08 07:40:50;;;;;;;2.20;1.90;;;;;;;12.97;49.12;98362.52;105736;1251;61220;-40
2024/01/08 07:43:17;;;;;;;2.60;2.00;;;;;;;12.96;49.07;98362.64;105696;1253;74406;-42
2024/01/08 07:45:44;;;;;;;2.20;2.00;;;;;;;12.96;49.03;98363.39;105766;1254;66173;-40
2024/01/08 07:48:10;;;;;;;2.40;1.70;;;;;;;12.95;49.06;98366.27;105776;1251;73589;-41
2024/01/08 07:50:37;;;;;;;5.10;1.90;;;;;;;12.94;48.98;98370.21;105688;1256;61251;-39
2024/01/08 07:53:04;;;;;;;3.20;2.10;;;;;;;12.93;49.02;98371.21;105862;1251;61280;-40
2024/01/08 07:55:31;;;;;;;2.60;2.20;;;;;;;12.93;49.25;98373.92;105692;1256;74593;-47
2024/01/08 07:57:58;;;;;;;3.20;1.90;;;;;;;12.95;49.31;98375.25;105868;1254;63915;-47
2024/01/08 08:00:25;;;;;;;4.10;2.10;;;;;;;12.97;49.38;98382.14;105763;1251;73022;-40
2024/01/08 08:02:52;;;;;;;5.10;1.90;;;;;;;12.99;49.57;98383.94;105815;1257;61160;-40
2024/01/08 08:05:19;;;;;;;3.10;1.90;;;;;;;13.01;49.56;98384.92;105769;1251;61251;-42
2024/01/08 08:07:48;;;;;;;2.50;1.80;;;;;;;13.04;49.72;98389.60;109028;1250;74487;-38
2024/01/08 08:10:15;;;;;;;2.90;1.70;;;;;;;13.07;49.88;98388.08;105624;1255;67278;-39
2024/01/08 08:12:42;;;;;;;6.00;2.10;;;;;;;13.11;50.13;98394.56;105638;1254;72521;-39
2024/01/08 08:15:10;;;;;;;2.90;1.90;;;;;;;13.14;50.08;98402.64;105685;1253;61457;-37
2024/01/08 08:17:40;;;;;;;2.10;1.80;;;;;;;13.16;50.22;98404.17;106080;1256;61237;-39
2024/01/08 08:20:09;;;;;;;4.60;1.90;;;;;;;13.19;50.35;98410.55;107296;1251;73511;-38
2024/01/08 08:22:37;;;;;;;1.90;1.70;;;;;;;13.22;50.37;98413.41;105780;1251;66225;-41
2024/01/08 08:25:09;;;;;;;2.70;1.70;;;;;;;13.24;50.48;98415.69;105794;1251;72715;-38
2024/01/08 08:27:37;;;;;;;2.20;1.70;;;;;;;13.27;50.57;98423.27;105549;1256;61244;-38
2024/01/08 08:30:06;;;;;;;2.30;1.90;;;;;;;13.31;50.58;98431.06;105628;1256;61921;-41
2024/01/08 08:32:33;;;;;;;2.90;2.10;;;;;;;13.32;50.75;98435.23;105901;1254;74319;-42
2024/01/08 08:35:03;;;;;;;2.80;2.10;;;;;;;13.34;50.72;98444.29;105684;1256;66842;-46
2024/01/08 08:37:30;;;;;;;2.60;1.90;;;;;;;13.37;50.66;98442.34;105579;1254;74674;-41
2024/01/08 08:40:15;;;;;;;5.00;2.00;;;;;;;13.40;50.63;98447.45;105643;1255;61205;-42
2024/01/08 08:42:41;;;;;;;2.40;2.10;;;;;;;13.44;51.04;98446.36;105629;1250;61250;-40
2024/01/08 08:45:09;;;;;;;3.20;1.90;;;;;;;13.49;51.16;98444.80;105664;1251;75677;-40
2024/01/08 08:47:37;;;;;;;2.70;1.90;;;;;;;13.54;51.49;98447.98;105623;1255;66804;-38
2024/01/08 08:50:05;;;;;;;3.00;1.90;;;;;;;13.60;51.54;98450.15;107322;1258;73263;-41
2024/01/08 08:52:32;;;;;;;3.30;2.50;;;;;;;13.64;51.54;98452.22;105665;1256;61251;-41
2024/01/08 08:54:59;;;;;;;2.70;2.10;;;;;;;13.68;51.60;98454.52;105951;1251;61280;-42
2024/01/08 08:57:26;;;;;;;2.70;1.80;;;;;;;13.72;51.50;98458.52;105732;1254;74517;-40
2024/01/08 08:59:53;;;;;;;2.40;1.90;;;;;;;13.75;51.60;98464.12;105768;1257;65726;-41
2024/01/08 09:02:20;;;;;;;3.60;2.10;;;;;;;13.78;51.51;98466.22;105589;1251;73472;-40
2024/01/08 09:04:47;;;;;;;2.30;1.90;;;;;;;13.81;51.56;98468.48;105820;1255;61234;-41
2024/01/08 09:07:14;;;;;;;2.60;1.90;;;;;;;13.83;51.62;98469.67;105757;1254;61349;-44
2024/01/08 09:09:42;;;;;;;6.00;2.10;;;;;;;13.86;51.64;98475.34;105859;1255;74492;-41
2024/01/08 09:12:09;;;;;;;5.10;1.90;;;;;;;13.87;51.65;98472.89;105796;1256;66018;-43
2024/01/08 09:14:35;;;;;;;2.70;2.00;;;;;;;13.88;51.53;98477.11;105903;1251;71248;-47
2024/01/08 09:17:03;;;;;;;3.90;1.80;;;;;;;13.90;51.52;98480.20;105741;1256;61389;-44
2024/01/08 09:20:02;;;;;;;2.50;2.10;;;;;;;13.93;51.54;98478.42;105785;1251;61599;-47
2024/01/08 09:22:30;;;;;;;2.50;1.80;;;;;;;13.94;51.64;98477.13;105630;1253;74317;-45
2024/01/08 09:24:57;;;;;;;1.70;1.60;;;;;;;13.95;51.50;98474.77;105834;1255;65046;-47
2024/01/08 09:27:23;;;;;;;4.00;2.00;;;;;;;13.96;51.46;98474.64;105862;1251;73263;-39
2024/01/08 09:29:50;;;;;;;3.30;1.70;;;;;;;13.97;51.51;98476.60;105685;1256;61218;-43
2024/01/08 09:32:17;;;;;;;3.00;2.00;;;;;;;13.99;51.46;98476.70;105698;1251;61147;-47
2024/01/08 09:34:44;;;;;;;2.40;2.00;;;;;;;13.99;51.49;98477.11;105697;1257;74648;-44
2024/01/08 09:37:10;;;;;;;1.80;1.70;;;;;;;13.99;51.48;98476.27;105642;1250;66005;-41
2024/01/08 09:39:37;;;;;;;2.40;2.10;;;;;;;14.01;51.54;98470.65;106120;1250;73334;-41
2024/01/08 09:42:04;;;;;;;3.30;1.90;;;;;;;14.02;51.51;98472.84;105775;1255;61309;-42
2024/01/08 09:44:31;;;;;;;2.00;1.70;;;;;;;14.02;51.55;98475.74;105810;1253;61360;-42
2024/01/08 09:46:58;;;;;;;2.40;1.80;;;;;;;14.03;51.61;98482.35;105888;1251;74538;-42
2024/01/08 09:49:26;;;;;;;2.10;1.70;;;;;;;14.04;51.52;98482.22;105706;1255;67051;-45
2024/01/08 09:51:53;;;;;;;3.80;2.10;;;;;;;14.05;51.43;98485.88;105781;1251;73425;-43
2024/01/08 09:54:21;;;;;;;5.90;2.00;;;;;;;14.06;51.53;98487.04;105823;1256;61320;-44
2024/01/08 09:56:50;;;;;;;2.10;1.90;;;;;;;14.07;51.48;98489.80;106343;1250;61311;-43
2024/01/08 09:59:17;;;;;;;3.00;1.80;;;;;;;14.08;51.63;98489.21;105946;1250;74773;-42
2024/01/08 10:01:44;;;;;;;3.10;1.90;;;;;;;14.09;51.50;98491.66;105823;1256;67114;-41
2024/01/08 10:04:10;;;;;;;3.00;1.80;;;;;;;14.11;51.42;98490.98;105958;1252;73475;-40
2024/01/08 10:06:40;;;;;;;2.30;1.70;;;;;;;14.12;51.48;98491.60;105692;1255;61665;-40
2024/01/08 10:09:07;;;;;;;4.10;2.20;;;;;;;14.13;51.48;98484.64;105616;1253;61317;-43
2024/01/08 10:11:34;;;;;;;2.00;1.70;;;;;;;14.13;51.44;98488.67;105618;1254;75343;-40
2024/01/08 10:14:01;;;;;;;2.20;1.80;;;;;;;14.14;51.44;98489.69;105907;1256;67140;-44
2024/01/08 10:16:28;;;;;;;2.10;1.90;;;;;;;14.14;51.45;98486.81;105830;1254;73471;-45
2024/01/08 10:19:15;;;;;;;3.40;1.80;;;;;;;14.15;51.17;98489.77;105755;1255;61145;-40
2024/01/08 10:21:42;;;;;;;2.50;2.00;;;;;;;14.15;51.30;98488.69;106147;1253;61159;-45
2024/01/08 10:24:09;;;;;;;2.30;2.10;;;;;;;14.16;51.25;98492.66;105743;1256;73586;-40
2024/01/08 10:26:41;;;;;;;1.90;1.70;;;;;;;14.17;51.19;98491.39;105712;1255;66447;-41
2024/01/08 10:29:12;;;;;;;2.70;1.90;;;;;;;14.16;51.17;98493.77;105844;1253;72584;-44
2024/01/08 10:31:39;;;;;;;3.70;2.00;;;;;;;14.17;51.07;98498.88;106406;1255;61327;-41
2024/01/08 10:34:06;;;;;;;2.80;1.90;;;;;;;14.17;51.02;98500.98;105800;1255;61326;-42
2024/01/08 10:36:33;;;;;;;3.30;2.10;;;;;;;14.17;50.90;98501.52;105542;1253;74341;-41
2024/01/08 10:39:01;;;;;;;3.10;1.90;;;;;;;14.18;50.93;98503.22;105715;1256;65975;-41
2024/01/08 10:41:28;;;;;;;2.70;1.90;;;;;;;14.18;50.88;98510.48;105617;1253;73636;-41
2024/01/08 10:43:56;;;;;;;2.30;2.00;;;;;;;14.18;50.92;98511.34;105707;1256;61250;-41
2024/01/08 10:46:26;;;;;;;2.30;1.80;;;;;;;14.18;50.92;98515.81;105605;1253;61282;-39
2024/01/08 10:48:52;;;;;;;2.20;1.90;;;;;;;14.18;50.96;98522.29;105672;1252;73654;-39
2024/01/08 10:51:21;;;;;;;4.60;1.90;;;;;;;14.18;50.82;98525.68;105750;1255;66924;-40
2024/01/08 10:53:49;;;;;;;2.30;2.00;;;;;;;14.19;50.88;98525.83;105817;1251;73303;-41
2024/01/08 10:56:18;;;;;;;2.20;2.00;;;;;;;14.18;50.78;98526.59;105669;1253;61230;-43
2024/01/08 10:58:54;;;;;;;2.80;2.40;;;;;;;14.18;50.72;98525.35;105776;1256;61228;-43
2024/01/08 11:01:21;;;;;;;2.90;2.20;;;;;;;14.18;50.87;98526.42;105782;1253;75344;-44
2024/01/08 11:03:48;;;;;;;2.70;2.20;;;;;;;14.18;50.81;98527.88;105734;1257;66368;-49
2024/01/08 11:06:15;;;;;;;2.70;2.30;;;;;;;14.19;50.77;98527.40;105684;1257;73395;-42
2024/01/08 11:08:42;;;;;;;2.60;2.30;;;;;;;14.18;50.76;98528.37;105864;1256;61382;-40
2024/01/08 11:11:11;;;;;;;2.80;2.30;;;;;;;14.18;50.71;98528.74;109447;1251;60162;-41
2024/01/08 11:13:40;;;;;;;3.10;2.10;;;;;;;14.19;50.82;98532.84;109470;1251;75583;-39
2024/01/08 11:16:07;;;;;;;4.00;2.10;;;;;;;14.19;50.82;98532.24;105639;1256;67611;-42
2024/01/08 11:18:34;;;;;;;3.00;2.30;;;;;;;14.20;50.65;98533.74;105597;1254;73323;-41
2024/01/08 11:21:01;;;;;;;3.20;2.00;;;;;;;14.20;50.64;98533.09;105470;1267;61233;-43
2024/01/08 11:23:38;;;;;;;3.00;2.30;;;;;;;14.21;50.69;98538.02;105929;1251;61251;-50
2024/01/08 11:26:19;;;;;;;2.50;2.30;;;;;;;14.21;50.76;98543.30;105730;1255;74853;-44